Time;durP1;ratioP1;P1;durP2;ratioP2;P2;SDS_P1;SDS_P2;PMS_P1;PMS_P2;Temp;Humidity;BMP_temperature;BMP_pressure;BME280_temperature;BME280_humidity;BME280_pressure;Samples;Min_cycle;Max_cycle;Signal;HPM_P1;HPM_P2
2021/05/27 00:00:56;;;;;;;3.97;3.67;;;;;;;8.82;87.79;100298.81;5048222;28;21023;-85
2021/05/27 00:03:22;;;;;;;3.38;3.13;;;;;;;8.77;87.98;100302.31;5085009;28;20077;-86
2021/05/27 00:05:52;;;;;;;3.33;3.10;;;;;;;8.74;87.71;100296.25;5084830;28;20056;-85
2021/05/27 00:08:22;;;;;;;3.38;3.08;;;;;;;8.71;88.00;100301.50;5069493;28;20097;-85
2021/05/27 00:10:48;;;;;;;2.97;2.78;;;;;;;8.71;88.08;100297.13;5042218;28;20052;-85
2021/05/27 00:13:16;;;;;;;3.15;2.85;;;;;;;8.70;87.69;100300.63;5081624;28;20494;-86
2021/05/27 00:15:42;;;;;;;2.50;2.38;;;;;;;8.70;87.50;100297.16;5061277;28;20109;-85
2021/05/27 00:18:09;;;;;;;3.08;2.28;;;;;;;8.70;87.51;100287.56;5061360;28;20044;-84
2021/05/27 00:20:37;;;;;;;2.55;2.35;;;;;;;8.72;87.43;100293.66;5062618;28;20052;-85
2021/05/27 00:23:03;;;;;;;2.58;2.38;;;;;;;8.72;87.37;100298.88;5063934;28;20048;-86
2021/05/27 00:25:36;;;;;;;1.95;1.80;;;;;;;8.74;87.83;100298.84;5045349;28;20097;-85
2021/05/27 00:28:03;;;;;;;1.92;1.83;;;;;;;8.73;87.12;100287.53;5065774;28;20041;-85
2021/05/27 00:30:30;;;;;;;1.77;1.67;;;;;;;8.72;87.48;100291.03;5065983;28;20044;-85
2021/05/27 00:33:04;;;;;;;1.77;1.67;;;;;;;8.72;87.66;100298.88;5050340;28;20045;-85
2021/05/27 00:35:31;;;;;;;1.52;1.52;;;;;;;8.73;87.42;100307.56;5065350;28;20040;-85
2021/05/27 00:37:58;;;;;;;1.58;1.48;;;;;;;8.74;87.45;100302.31;5067020;28;20044;-85
2021/05/27 00:40:26;;;;;;;2.45;2.25;;;;;;;8.77;87.08;100289.25;5058486;28;20564;-85
2021/05/27 00:42:52;;;;;;;2.20;2.10;;;;;;;8.81;86.53;100308.34;5061215;28;20519;-85
2021/05/27 00:45:29;;;;;;;2.40;2.30;;;;;;;8.85;86.28;100303.97;5063235;28;20148;-85
2021/05/27 00:47:58;;;;;;;2.20;2.00;;;;;;;8.88;86.06;100302.22;5081495;28;20131;-85
2021/05/27 00:50:25;;;;;;;3.00;2.10;;;;;;;8.90;86.36;100304.81;5068316;28;20056;-85
2021/05/27 00:52:53;;;;;;;3.05;1.60;;;;;;;8.91;85.92;100307.41;5050338;28;20051;-85
2021/05/27 00:55:26;;;;;;;2.22;2.13;;;;;;;8.93;86.07;100315.25;5068716;28;20037;-85
2021/05/27 00:57:55;;;;;;;2.47;1.88;;;;;;;8.92;85.47;100311.75;5080035;28;20040;-85
2021/05/27 01:00:29;;;;;;;1.80;1.70;;;;;;;8.94;85.75;100310.03;5064146;28;20697;-85
2021/05/27 01:03:00;;;;;;;;;;;;;;;8.96;85.85;100311.72;5047280;28;20045;-85
2021/05/27 01:05:28;;;;;;;2.38;1.45;;;;;;;8.92;86.04;100310.91;5065175;28;19920;-85
2021/05/27 01:07:54;;;;;;;4.00;1.63;;;;;;;8.90;86.19;100318.75;5064700;28;20102;-87
2021/05/27 01:10:21;;;;;;;2.00;1.50;;;;;;;8.91;85.52;100320.47;5064828;28;20051;-85
2021/05/27 01:12:54;;;;;;;1.60;1.52;;;;;;;8.93;85.37;100320.47;5070667;28;20068;-85
2021/05/27 01:15:31;;;;;;;3.72;1.55;;;;;;;8.98;84.93;100312.59;5083552;28;20055;-85
2021/05/27 01:18:14;;;;;;;1.23;1.10;;;;;;;9.02;84.45;100315.19;5068906;28;20040;-85
2021/05/27 01:20:49;;;;;;;1.63;1.35;;;;;;;9.05;84.21;100314.28;5068619;28;20053;-85
2021/05/27 01:23:21;;;;;;;1.67;1.52;;;;;;;9.08;84.33;100322.94;5073595;28;20036;-85
2021/05/27 01:25:59;;;;;;;1.42;1.33;;;;;;;9.06;85.19;100327.31;5074076;28;20063;-85
2021/05/27 01:28:32;;;;;;;1.55;1.42;;;;;;;9.01;85.00;100330.84;5065806;28;20079;-85
2021/05/27 01:30:59;;;;;;;1.40;1.30;;;;;;;8.97;84.92;100319.56;5070284;28;20139;-85
2021/05/27 01:33:25;;;;;;;1.33;1.23;;;;;;;8.97;85.17;100326.53;5071072;28;20047;-85
2021/05/27 01:35:53;;;;;;;3.08;1.17;;;;;;;8.99;85.37;100325.63;5053140;28;20139;-85
2021/05/27 01:38:26;;;;;;;1.60;1.50;;;;;;;9.03;85.07;100329.09;5065597;28;20044;-85
2021/05/27 01:40:54;;;;;;;1.15;1.08;;;;;;;9.05;85.25;100327.34;5051286;28;20107;-85
2021/05/27 01:43:23;;;;;;;2.08;1.13;;;;;;;9.06;84.97;100327.31;5070533;28;20056;-85
2021/05/27 01:45:51;;;;;;;3.10;2.17;;;;;;;9.08;85.27;100325.56;5089443;28;20064;-85
2021/05/27 01:48:19;;;;;;;1.77;1.30;;;;;;;9.10;85.17;100326.41;5066433;28;20041;-85
2021/05/27 01:50:49;;;;;;;1.67;1.60;;;;;;;9.12;85.15;100331.63;5066036;28;20262;-85
2021/05/27 01:53:17;;;;;;;3.33;2.30;;;;;;;9.14;84.96;100332.50;5087551;28;20132;-85
2021/05/27 01:55:48;;;;;;;2.08;1.92;;;;;;;9.13;84.88;100335.13;5087957;28;20040;-85
2021/05/27 01:58:17;;;;;;;3.90;1.85;;;;;;;9.12;84.72;100331.63;5068191;28;20044;-85
2021/05/27 02:00:44;;;;;;;2.30;2.10;;;;;;;9.13;84.70;100324.69;5084262;28;20341;-85
2021/05/27 02:03:11;;;;;;;2.35;2.15;;;;;;;9.16;84.90;100338.53;5067895;28;20052;-85
2021/05/27 02:05:37;;;;;;;2.00;1.90;;;;;;;9.19;84.85;100335.94;5064257;28;21621;-85
2021/05/27 02:08:05;;;;;;;2.80;2.28;;;;;;;9.21;84.95;100338.53;5066708;28;20453;-85
2021/05/27 02:10:31;;;;;;;2.20;2.10;;;;;;;9.16;85.17;100337.69;5079593;28;20041;-85
2021/05/27 02:13:01;;;;;;;2.50;2.15;;;;;;;9.07;85.65;100344.75;5081823;28;20377;-85
2021/05/27 02:15:28;;;;;;;2.78;2.17;;;;;;;9.00;86.50;100343.03;5072144;28;20833;-85
2021/05/27 02:17:56;;;;;;;2.58;2.38;;;;;;;8.93;87.45;100339.59;5062662;28;20072;-85
2021/05/27 02:20:23;;;;;;;3.33;2.50;;;;;;;8.87;87.92;100336.19;5064273;28;20304;-85
2021/05/27 02:22:50;;;;;;;2.13;2.03;;;;;;;8.82;88.64;100335.34;5073679;28;20095;-85
2021/05/27 02:25:17;;;;;;;2.10;2.00;;;;;;;8.77;88.38;100338.84;5069607;28;20048;-85
2021/05/27 02:27:44;;;;;;;2.85;2.63;;;;;;;8.76;88.70;100344.06;5078719;28;20053;-85
2021/05/27 02:30:12;;;;;;;2.40;2.30;;;;;;;8.77;88.28;100345.78;5082371;28;20127;-85
2021/05/27 02:32:43;;;;;;;2.13;2.03;;;;;;;8.75;88.87;100337.97;5054634;28;20110;-85
2021/05/27 02:35:12;;;;;;;2.90;2.70;;;;;;;8.75;88.63;100342.34;5046918;28;20049;-86
2021/05/27 02:37:39;;;;;;;2.28;1.98;;;;;;;8.75;88.62;100344.97;5071287;28;20066;-85
2021/05/27 02:40:08;;;;;;;2.47;2.25;;;;;;;8.75;88.48;100348.44;5059370;28;20028;-85
2021/05/27 02:42:35;;;;;;;2.15;2.05;;;;;;;8.75;88.32;100343.22;5068282;28;20093;-85
2021/05/27 02:45:06;;;;;;;4.15;2.28;;;;;;;8.75;88.46;100345.81;5086410;28;20047;-86
2021/05/27 02:47:33;;;;;;;3.80;2.97;;;;;;;8.76;88.27;100344.06;5080084;28;20048;-85
2021/05/27 02:49:59;;;;;;;3.58;2.50;;;;;;;8.80;88.13;100347.53;5065788;28;20052;-86
2021/05/27 02:52:33;;;;;;;3.40;2.47;;;;;;;8.81;88.17;100339.69;5087192;28;20261;-85
2021/05/27 02:55:04;;;;;;;6.95;3.45;;;;;;;8.82;88.20;100344.03;5089133;28;20051;-86
2021/05/27 02:57:30;;;;;;;2.38;2.17;;;;;;;8.82;87.95;100341.41;5064909;28;20044;-86
2021/05/27 02:59:57;;;;;;;5.15;2.58;;;;;;;8.84;88.26;100344.91;5067957;28;20052;-86
2021/05/27 03:02:26;;;;;;;2.75;2.38;;;;;;;8.85;88.07;100345.75;5054349;28;20040;-86
2021/05/27 03:04:53;;;;;;;2.75;2.42;;;;;;;8.88;87.46;100343.13;5071517;28;20052;-86
2021/05/27 03:07:21;;;;;;;2.60;2.40;;;;;;;8.90;87.58;100341.38;5061752;28;20861;-84
2021/05/27 03:09:47;;;;;;;4.03;2.47;;;;;;;8.89;86.99;100342.25;5083718;28;20547;-86
2021/05/27 03:12:13;;;;;;;2.28;2.08;;;;;;;8.91;86.68;100340.50;5065636;28;20103;-86
2021/05/27 03:14:39;;;;;;;1.92;1.83;;;;;;;8.92;86.30;100342.22;5070112;28;20541;-85
2021/05/27 03:17:07;;;;;;;2.00;1.90;;;;;;;8.94;86.26;100345.69;5078399;28;20173;-85
2021/05/27 03:19:40;;;;;;;2.03;1.88;;;;;;;8.96;85.86;100343.94;5050195;28;20048;-86
2021/05/27 03:22:12;;;;;;;2.67;2.50;;;;;;;9.00;85.88;100342.19;5084376;28;20067;-84
2021/05/27 03:24:45;;;;;;;2.95;1.75;;;;;;;9.01;85.26;100339.56;5067437;28;20055;-85
2021/05/27 03:27:13;;;;;;;3.33;2.13;;;;;;;9.01;85.49;100346.50;5072700;28;20053;-85
2021/05/27 03:29:41;;;;;;;1.80;1.52;;;;;;;8.99;85.99;100351.75;5063840;28;20057;-86
2021/05/27 03:32:12;;;;;;;1.98;1.88;;;;;;;8.96;86.03;100354.38;5085907;28;20147;-85
2021/05/27 03:34:40;;;;;;;1.73;1.63;;;;;;;8.92;86.14;100353.53;5069060;28;20547;-85
2021/05/27 03:37:07;;;;;;;2.53;1.13;;;;;;;8.91;86.29;100358.75;5078897;28;20048;-86
2021/05/27 03:39:35;;;;;;;1.15;1.10;;;;;;;8.87;86.14;100357.91;5068949;28;20049;-85
2021/05/27 03:42:01;;;;;;;1.80;1.67;;;;;;;8.84;86.57;100352.72;5073216;28;20134;-87
2021/05/27 03:44:29;;;;;;;1.50;1.40;;;;;;;8.81;86.12;100346.66;5085045;28;20119;-87
2021/05/27 03:46:55;;;;;;;3.60;1.15;;;;;;;8.80;86.23;100360.56;5082715;28;20106;-85
2021/05/27 03:49:21;;;;;;;2.30;1.27;;;;;;;8.78;86.03;100358.84;5069196;28;20063;-87
2021/05/27 03:51:47;;;;;;;0.90;0.90;;;;;;;8.80;86.17;100356.25;5067200;28;20045;-87
2021/05/27 03:54:15;;;;;;;3.45;1.30;;;;;;;8.81;85.92;100357.94;5072520;28;20075;-87
2021/05/27 03:56:41;;;;;;;1.33;1.20;;;;;;;8.81;85.39;100355.34;5080961;28;20053;-86
2021/05/27 04:01:53;;;;;;;0.88;0.85;;;;;;;8.83;85.52;100364.03;5063249;28;20065;-86
2021/05/27 04:07:09;;;;;;;2.88;1.00;;;;;;;8.81;85.33;100368.38;5065035;28;20058;-85
2021/05/27 04:09:40;;;;;;;0.90;0.85;;;;;;;8.80;85.03;100371.91;5049944;28;20072;-85
2021/05/27 04:17:38;;;;;;;1.83;0.85;;;;;;;8.89;85.00;100384.00;5046665;28;20040;-85
2021/05/27 04:20:06;;;;;;;1.45;1.02;;;;;;;8.91;84.65;100380.50;5066398;28;20056;-86
2021/05/27 04:22:36;;;;;;;2.80;0.73;;;;;;;8.97;84.44;100384.84;5070480;28;20062;-85
2021/05/27 04:25:04;;;;;;;0.52;0.52;;;;;;;9.02;84.48;100388.28;5068910;28;20052;-84
2021/05/27 04:27:31;;;;;;;2.08;0.65;;;;;;;9.06;84.12;100378.66;5065489;28;20131;-84
2021/05/27 04:30:12;;;;;;;1.10;0.70;;;;;;;9.09;83.88;100386.50;5068037;28;20058;-83
2021/05/27 04:32:54;;;;;;;1.48;0.82;;;;;;;9.16;83.81;100385.56;5051295;28;20056;-84
2021/05/27 04:35:32;;;;;;;3.38;1.40;;;;;;;9.19;83.44;100388.16;5051385;28;20041;-85
2021/05/27 04:38:09;;;;;;;2.20;1.23;;;;;;;9.24;83.19;100386.38;5081577;28;20044;-85
2021/05/27 04:40:44;;;;;;;1.40;1.30;;;;;;;9.27;82.97;100388.09;5069376;28;20049;-84
2021/05/27 04:43:16;;;;;;;2.28;1.00;;;;;;;9.28;83.28;100387.22;5069852;28;20040;-85
2021/05/27 04:45:48;;;;;;;2.05;1.30;;;;;;;9.30;82.67;100382.00;5056868;28;20053;-85
2021/05/27 04:48:15;;;;;;;1.40;1.30;;;;;;;9.35;83.03;100388.91;5068346;28;20059;-85
2021/05/27 04:50:45;;;;;;;1.42;1.35;;;;;;;9.40;82.86;100387.13;5070579;28;20044;-84
2021/05/27 04:53:13;;;;;;;2.63;1.58;;;;;;;9.42;82.37;100387.09;5057782;28;20024;-83
2021/05/27 04:55:46;;;;;;;1.77;1.50;;;;;;;9.41;82.73;100377.53;5079824;28;20097;-84
2021/05/27 04:58:19;;;;;;;3.20;1.33;;;;;;;9.43;82.17;100394.06;5076260;28;20939;-84
2021/05/27 05:00:51;;;;;;;2.28;1.52;;;;;;;9.48;82.19;100394.91;5090086;28;20048;-84
2021/05/27 05:03:21;;;;;;;;;;;;;;;9.58;81.84;100399.16;5074142;28;20450;-83
2021/05/27 05:05:53;;;;;;;4.57;1.90;;;;;;;9.69;81.87;100403.44;5066872;28;19931;-83
2021/05/27 05:08:23;;;;;;;1.63;1.20;;;;;;;9.74;81.25;100393.78;5076792;28;20406;-83
2021/05/27 05:10:49;;;;;;;2.00;1.27;;;;;;;9.80;81.13;100393.72;5050895;28;20048;-84
2021/05/27 05:13:15;;;;;;;5.82;1.48;;;;;;;9.77;80.92;100393.75;5092215;28;20052;-84
2021/05/27 05:15:44;;;;;;;2.50;1.75;;;;;;;9.79;80.92;100410.31;5070535;28;20146;-85
2021/05/27 05:18:16;;;;;;;1.65;1.40;;;;;;;9.80;81.10;100411.16;5054701;28;20079;-84
2021/05/27 05:21:02;;;;;;;2.38;1.33;;;;;;;9.84;80.68;100405.00;5058429;28;20517;-82
2021/05/27 05:23:35;;;;;;;1.27;1.15;;;;;;;9.85;79.96;100405.00;5066176;28;20094;-84
2021/05/27 05:26:34;;;;;;;1.30;1.20;;;;;;;9.82;79.76;100406.78;5086563;28;20071;-86
2021/05/27 05:29:03;;;;;;;4.57;1.67;;;;;;;9.81;79.69;100411.13;5086112;28;20120;-86
2021/05/27 05:31:35;;;;;;;1.75;1.48;;;;;;;9.82;80.22;100407.66;5064730;28;20033;-84
2021/05/27 05:34:18;;;;;;;2.10;1.35;;;;;;;9.83;80.34;100418.97;5065807;28;20047;-86
2021/05/27 05:36:47;;;;;;;2.13;1.27;;;;;;;9.84;80.07;100412.84;5075986;28;20048;-84
2021/05/27 05:39:13;;;;;;;1.15;1.10;;;;;;;9.76;80.09;100412.94;5070644;28;20282;-84
2021/05/27 05:41:42;;;;;;;3.80;1.05;;;;;;;9.71;80.21;100412.09;5068703;28;20052;-85
2021/05/27 05:44:11;;;;;;;1.23;1.10;;;;;;;9.66;80.51;100411.28;5079437;28;20049;-85
2021/05/27 05:46:39;;;;;;;2.35;1.00;;;;;;;9.63;80.41;100406.94;5067242;28;20059;-84
2021/05/27 05:49:10;;;;;;;1.05;0.90;;;;;;;9.66;80.52;100413.88;5080456;28;20070;-85
2021/05/27 05:51:39;;;;;;;2.78;1.20;;;;;;;9.69;80.36;100411.28;5098597;28;20041;-86
2021/05/27 05:54:11;;;;;;;2.92;0.95;;;;;;;9.71;80.26;100426.06;5086957;28;20535;-84
2021/05/27 05:56:43;;;;;;;0.80;0.80;;;;;;;9.69;80.85;100427.81;5054048;28;20120;-85
2021/05/27 05:59:10;;;;;;;2.20;1.10;;;;;;;9.60;81.47;100420.91;5069813;28;20068;-85
2021/05/27 06:01:41;;;;;;;1.23;1.13;;;;;;;9.49;83.06;100424.50;5052470;28;20442;-85
2021/05/27 06:04:11;;;;;;;1.10;0.75;;;;;;;9.38;83.52;100419.34;5055892;28;20052;-83
2021/05/27 06:06:51;;;;;;;2.67;1.52;;;;;;;9.39;83.29;100426.31;5083543;28;20151;-83
2021/05/27 06:09:19;;;;;;;1.40;1.13;;;;;;;9.52;82.81;100425.34;5072585;28;20059;-85
2021/05/27 06:11:53;;;;;;;1.40;1.08;;;;;;;9.65;82.33;100420.88;5055757;28;20132;-84
2021/05/27 06:14:23;;;;;;;1.10;1.10;;;;;;;9.79;82.07;100419.88;5073540;28;20490;-85
2021/05/27 06:16:50;;;;;;;5.63;1.58;;;;;;;9.94;81.04;100423.19;5086105;28;20036;-84
2021/05/27 06:19:32;;;;;;;1.17;1.13;;;;;;;10.10;81.18;100418.69;5060158;28;20166;-83
2021/05/27 06:22:00;;;;;;;0.93;0.93;;;;;;;10.15;80.13;100420.41;5073384;28;20047;-85
2021/05/27 06:24:44;;;;;;;2.28;1.77;;;;;;;10.08;80.47;100422.22;5082182;28;20041;-85
2021/05/27 06:27:11;;;;;;;2.30;1.42;;;;;;;10.02;81.12;100424.88;5069242;28;20040;-84
2021/05/27 06:29:39;;;;;;;1.90;1.52;;;;;;;10.00;81.37;100431.88;5087296;28;20040;-83
2021/05/27 06:32:21;;;;;;;0.90;0.90;;;;;;;9.91;81.13;100435.47;5078603;28;20033;-84
2021/05/27 06:34:56;;;;;;;5.30;1.55;;;;;;;9.87;81.92;100432.00;5083111;28;20072;-85
2021/05/27 06:37:37;;;;;;;0.98;0.70;;;;;;;9.87;81.99;100442.47;5091509;28;20036;-84
2021/05/27 06:40:14;;;;;;;1.17;0.75;;;;;;;9.89;82.14;100451.13;5070243;28;20041;-85
2021/05/27 06:42:44;;;;;;;0.80;0.80;;;;;;;9.89;82.22;100450.28;5074680;28;20083;-83
2021/05/27 06:45:13;;;;;;;1.52;0.75;;;;;;;9.84;83.27;100452.97;5080844;28;20128;-83
2021/05/27 06:47:39;;;;;;;0.75;0.75;;;;;;;9.82;83.04;100453.84;5068246;28;20055;-84
2021/05/27 06:50:08;;;;;;;0.93;0.93;;;;;;;9.79;82.83;100457.38;5087160;28;20129;-85
2021/05/27 06:52:37;;;;;;;0.63;0.60;;;;;;;9.75;82.63;100460.84;5069720;28;20043;-84
2021/05/27 06:55:07;;;;;;;1.65;0.85;;;;;;;9.69;82.99;100461.78;5069794;28;20048;-85
2021/05/27 06:57:35;;;;;;;1.25;0.65;;;;;;;9.66;83.58;100471.38;5050547;28;20080;-83
2021/05/27 07:02:51;;;;;;;0.63;0.60;;;;;;;9.56;84.14;100468.00;5061609;28;20066;-83
2021/05/27 07:05:22;;;;;;;0.80;0.80;;;;;;;9.62;84.42;100457.50;5064538;28;20398;-84
2021/05/27 07:07:50;;;;;;;1.05;0.90;;;;;;;9.75;83.45;100463.47;5065338;28;20052;-84
2021/05/27 07:10:18;;;;;;;1.40;0.82;;;;;;;9.89;82.67;100472.06;5069042;28;20057;-84
2021/05/27 07:12:55;;;;;;;1.05;0.88;;;;;;;9.93;83.45;100471.19;5085731;28;20089;-84
2021/05/27 07:15:26;;;;;;;0.70;0.70;;;;;;;9.88;83.33;100474.69;5066936;28;20414;-85
2021/05/27 07:17:54;;;;;;;1.83;1.73;;;;;;;9.89;83.48;100479.91;5085167;28;20040;-84
2021/05/27 07:20:24;;;;;;;1.42;1.25;;;;;;;10.02;82.78;100477.19;5066065;28;20040;-83
2021/05/27 07:22:52;;;;;;;2.35;1.10;;;;;;;10.14;81.40;100470.97;5055347;28;20495;-84
2021/05/27 07:25:23;;;;;;;0.95;0.93;;;;;;;10.35;80.66;100475.09;5067662;28;20093;-83
2021/05/27 07:27:50;;;;;;;0.90;0.90;;;;;;;10.50;80.07;100479.34;5085542;28;20453;-84
2021/05/27 07:30:20;;;;;;;0.60;0.38;;;;;;;10.58;79.48;100480.97;5064667;28;20323;-83
2021/05/27 07:32:47;;;;;;;0.93;0.93;;;;;;;10.65;78.90;100471.31;5065531;28;20039;-83
2021/05/27 07:35:14;;;;;;;0.85;0.70;;;;;;;10.69;79.47;100491.34;5049939;28;20136;-84
2021/05/27 07:37:41;;;;;;;0.80;0.80;;;;;;;10.73;79.00;100487.78;5050037;28;20040;-84
2021/05/27 07:40:13;;;;;;;0.77;0.60;;;;;;;10.71;79.50;100491.31;5068862;28;20128;-83
2021/05/27 07:42:45;;;;;;;2.00;0.52;;;;;;;10.67;80.29;100497.47;5056667;28;20049;-85
2021/05/27 07:45:17;;;;;;;0.82;0.80;;;;;;;10.70;79.20;100503.53;5057752;28;20055;-83
2021/05/27 07:47:47;;;;;;;0.40;0.40;;;;;;;10.70;78.16;100498.31;5068793;28;20131;-84
2021/05/27 07:50:14;;;;;;;0.47;0.30;;;;;;;10.72;78.29;100507.00;5090342;28;20287;-84
2021/05/27 07:52:40;;;;;;;0.70;0.47;;;;;;;10.79;77.58;100512.16;5050018;28;20033;-85
2021/05/27 07:55:11;;;;;;;0.80;0.57;;;;;;;10.76;77.69;100507.81;5069796;28;20121;-84
2021/05/27 07:57:37;;;;;;;1.55;0.32;;;;;;;10.80;78.26;100508.66;5085953;28;20048;-85
2021/05/27 08:00:13;;;;;;;0.40;0.40;;;;;;;10.81;77.49;100503.41;5062694;28;20062;-85
2021/05/27 08:02:43;;;;;;;0.40;0.40;;;;;;;10.91;77.76;100505.03;5066296;28;20062;-84
2021/05/27 08:05:20;;;;;;;0.50;0.50;;;;;;;10.93;77.31;100505.00;5067211;28;20127;-85
2021/05/27 08:07:52;;;;;;;1.77;0.40;;;;;;;10.95;77.60;100503.25;5054732;28;20040;-85
2021/05/27 08:10:18;;;;;;;2.28;0.70;;;;;;;10.86;77.08;100505.94;5051544;28;20060;-84
2021/05/27 08:12:47;;;;;;;1.00;0.85;;;;;;;10.57;78.54;100510.66;5054468;28;20048;-85
2021/05/27 08:15:13;;;;;;;0.90;0.90;;;;;;;10.39;79.25;100505.63;5050667;28;20052;-84
2021/05/27 08:17:41;;;;;;;1.15;0.80;;;;;;;10.20;80.96;100513.63;5049574;28;20070;-84
2021/05/27 08:20:10;;;;;;;0.75;0.75;;;;;;;10.17;81.10;100516.28;5085011;28;20056;-84
2021/05/27 08:22:42;;;;;;;0.57;0.45;;;;;;;10.29;80.35;100514.44;5071248;28;20053;-84
2021/05/27 08:25:10;;;;;;;0.47;0.47;;;;;;;10.39;79.47;100492.53;5074079;28;20044;-85
2021/05/27 08:27:37;;;;;;;1.20;0.43;;;;;;;10.47;79.42;100509.03;5054902;28;20052;-85
2021/05/27 08:30:07;;;;;;;0.80;0.80;;;;;;;10.50;79.43;100524.69;5051401;28;20082;-84
2021/05/27 08:32:37;;;;;;;2.30;0.80;;;;;;;10.44;80.08;100503.81;5052073;28;20068;-85
2021/05/27 08:35:07;;;;;;;0.50;0.50;;;;;;;10.46;81.18;100515.16;5068845;28;20685;-84
2021/05/27 08:37:34;;;;;;;0.47;0.40;;;;;;;10.48;80.22;100520.34;5073873;28;20052;-84
2021/05/27 08:40:00;;;;;;;1.20;0.70;;;;;;;10.39;81.12;100516.97;5070411;28;20059;-87
2021/05/27 08:42:27;;;;;;;1.10;0.93;;;;;;;10.20;81.85;100529.31;5061210;28;20422;-87
2021/05/27 08:44:58;;;;;;;0.60;0.60;;;;;;;10.13;83.32;100524.16;5071630;28;20049;-86
2021/05/27 08:47:26;;;;;;;0.40;0.40;;;;;;;10.05;84.14;100535.56;5077470;28;20051;-87
2021/05/27 08:50:00;;;;;;;0.85;0.85;;;;;;;9.99;84.50;100542.59;5070573;28;20070;-87
2021/05/27 08:52:29;;;;;;;0.50;0.50;;;;;;;9.83;84.48;100536.59;5073811;28;20052;-84
2021/05/27 08:54:55;;;;;;;0.63;0.60;;;;;;;9.78;85.15;100547.13;5042623;28;20040;-84
2021/05/27 08:57:21;;;;;;;2.30;0.85;;;;;;;9.79;85.75;100541.00;5073559;28;20056;-85
2021/05/27 08:59:48;;;;;;;0.70;0.70;;;;;;;9.77;85.73;100545.38;5057808;28;20052;-86
2021/05/27 09:02:16;;;;;;;1.08;0.80;;;;;;;9.80;86.77;100547.94;5074614;28;20094;-86
2021/05/27 09:04:43;;;;;;;0.63;0.60;;;;;;;9.73;87.34;100559.34;5074275;28;20135;-86
2021/05/27 09:07:14;;;;;;;1.35;0.90;;;;;;;9.68;87.76;100558.50;5077305;28;20044;-84
2021/05/27 09:10:05;;;;;;;1.70;1.55;;;;;;;9.58;88.11;100561.19;5061873;28;20050;-84
2021/05/27 09:12:56;;;;;;;0.70;0.70;;;;;;;9.49;89.01;100565.59;5075706;28;20064;-84
2021/05/27 09:15:23;;;;;;;0.88;0.88;;;;;;;9.44;89.35;100566.50;5078298;28;20056;-85
2021/05/27 09:17:52;;;;;;;1.70;1.23;;;;;;;9.49;89.38;100556.03;5089676;28;20048;-85
2021/05/27 09:20:26;;;;;;;1.17;0.85;;;;;;;9.49;88.54;100561.25;5054516;28;20055;-86
2021/05/27 09:23:16;;;;;;;1.17;0.73;;;;;;;9.50;88.70;100562.97;5072217;28;20470;-86
2021/05/27 09:26:04;;;;;;;0.80;0.80;;;;;;;9.58;88.33;100574.25;5039640;28;20064;-86
2021/05/27 09:28:34;;;;;;;1.23;1.15;;;;;;;10.19;87.46;100579.91;5078058;28;20138;-85
2021/05/27 09:31:05;;;;;;;2.13;0.68;;;;;;;10.77;83.78;100577.66;5086804;28;20080;-85
2021/05/27 09:33:40;;;;;;;2.85;1.30;;;;;;;11.15;83.02;100585.94;5054136;28;20403;-86
2021/05/27 09:36:10;;;;;;;0.90;0.82;;;;;;;11.54;80.75;100571.44;5058244;28;20517;-85
2021/05/27 09:38:41;;;;;;;0.50;0.50;;;;;;;11.79;80.09;100578.94;5071618;28;20045;-86
2021/05/27 09:41:25;;;;;;;0.50;0.50;;;;;;;12.24;76.85;100571.25;5068644;28;20054;-85
2021/05/27 09:44:13;;;;;;;0.50;0.50;;;;;;;12.45;73.83;100570.88;5068039;28;20052;-86
2021/05/27 09:46:56;;;;;;;1.70;0.40;;;;;;;12.09;76.04;100587.25;5088017;28;20052;-85
2021/05/27 09:49:26;;;;;;;0.70;0.50;;;;;;;12.08;77.96;100598.63;5071503;28;20139;-85
2021/05/27 09:52:18;;;;;;;0.40;0.40;;;;;;;11.91;75.99;100605.00;5072484;28;20036;-85
2021/05/27 09:54:59;;;;;;;0.55;0.55;;;;;;;12.01;76.80;100594.38;5057204;28;20502;-85
2021/05/27 09:57:28;;;;;;;1.05;0.70;;;;;;;11.93;76.89;100607.59;5070612;28;20477;-85
2021/05/27 09:59:56;;;;;;;0.95;0.45;;;;;;;11.74;78.80;100613.09;5071135;28;20135;-84
2021/05/27 10:02:37;;;;;;;0.32;0.32;;;;;;;11.63;79.98;100608.88;5073141;28;20048;-84
2021/05/27 10:05:12;;;;;;;0.52;0.52;;;;;;;11.46;80.54;100622.22;5084284;28;20041;-84
2021/05/27 10:07:46;;;;;;;0.90;0.90;;;;;;;11.48;82.21;100621.31;5066218;28;20450;-86
2021/05/27 10:10:21;;;;;;;0.32;0.32;;;;;;;11.51;79.88;100615.16;5053592;28;20049;-86
2021/05/27 10:12:51;;;;;;;0.63;0.63;;;;;;;11.69;80.75;100621.91;5053413;28;20045;-87
2021/05/27 10:15:25;;;;;;;0.75;0.75;;;;;;;12.21;78.26;100618.53;5052315;28;20178;-86
2021/05/27 10:17:54;;;;;;;0.60;0.22;;;;;;;12.92;76.11;100621.69;5086061;28;20052;-85
2021/05/27 10:20:25;;;;;;;0.20;0.20;;;;;;;14.34;71.61;100613.31;5090228;28;20047;-85
2021/05/27 10:22:53;;;;;;;0.35;0.35;;;;;;;16.08;65.61;100603.97;5070773;28;20152;-82
2021/05/27 10:25:20;;;;;;;0.57;0.43;;;;;;;17.00;62.81;100612.31;5069123;28;20052;-84
2021/05/27 10:27:50;;;;;;;0.45;0.45;;;;;;;17.23;61.45;100611.47;5069147;28;20869;-85
2021/05/27 10:30:24;;;;;;;0.65;0.40;;;;;;;17.87;56.31;100615.19;5068793;28;20056;-86
2021/05/27 10:32:59;;;;;;;0.65;0.15;;;;;;;18.24;54.95;100618.16;5056870;28;20799;-86
2021/05/27 10:35:56;;;;;;;0.30;0.30;;;;;;;18.40;54.79;100616.59;5053221;28;20049;-85
2021/05/27 10:38:37;;;;;;;1.25;0.40;;;;;;;19.00;53.63;100615.81;5074841;28;20053;-87
2021/05/27 10:41:07;;;;;;;0.40;0.40;;;;;;;18.81;52.50;100615.75;5082625;28;20040;-84
2021/05/27 10:43:33;;;;;;;0.30;0.30;;;;;;;18.06;56.02;100631.25;5073364;28;20124;-85
2021/05/27 10:46:01;;;;;;;0.38;0.38;;;;;;;17.26;57.26;100623.72;5067217;28;20045;-84
2021/05/27 10:48:39;;;;;;;0.47;0.47;;;;;;;16.36;59.20;100634.75;5068217;28;20049;-82
2021/05/27 10:51:25;;;;;;;1.00;0.50;;;;;;;15.44;62.15;100625.31;5063652;28;20430;-84
2021/05/27 10:54:28;;;;;;;0.55;0.55;;;;;;;14.93;62.46;100635.53;5085195;28;20644;-85
2021/05/27 10:56:54;;;;;;;0.80;0.80;;;;;;;15.08;62.72;100628.09;5070918;28;20514;-84
2021/05/27 10:59:20;;;;;;;0.63;0.50;;;;;;;15.31;63.12;100632.72;5080567;28;20078;-84
2021/05/27 11:01:46;;;;;;;2.78;1.70;;;;;;;15.51;62.84;100632.13;5066369;28;20040;-84
2021/05/27 11:04:28;;;;;;;0.80;0.80;;;;;;;16.24;60.00;100635.19;5070201;28;20044;-85
2021/05/27 11:07:11;;;;;;;0.70;0.70;;;;;;;16.93;58.05;100626.69;5051497;28;20052;-85
2021/05/27 11:09:39;;;;;;;0.38;0.32;;;;;;;17.03;57.51;100641.31;5066587;28;20037;-85
2021/05/27 11:12:12;;;;;;;0.75;0.45;;;;;;;16.63;57.76;100630.31;5083641;28;20075;-85
2021/05/27 11:14:46;;;;;;;1.50;0.57;;;;;;;15.86;60.42;100646.91;5068896;28;20048;-84
2021/05/27 11:17:18;;;;;;;1.23;0.60;;;;;;;15.08;62.91;100650.03;5064721;28;20064;-84
2021/05/27 11:20:08;;;;;;;0.65;0.45;;;;;;;13.70;67.50;100657.78;5069335;28;20052;-86
2021/05/27 11:22:52;;;;;;;1.02;0.70;;;;;;;12.88;70.99;100665.53;5056414;28;20495;-85
2021/05/27 11:25:31;;;;;;;2.88;0.88;;;;;;;12.81;71.96;100660.41;5082175;28;20056;-85
2021/05/27 11:28:00;;;;;;;2.13;0.68;;;;;;;13.28;71.01;100663.03;5081790;28;20048;-84
2021/05/27 11:30:36;;;;;;;1.67;0.85;;;;;;;14.16;68.64;100658.53;5070303;28;20045;-84
2021/05/27 11:33:29;;;;;;;1.25;0.90;;;;;;;14.88;66.70;100651.44;5084871;28;20048;-84
2021/05/27 11:36:03;;;;;;;0.80;0.80;;;;;;;16.49;61.75;100654.59;5068276;28;20079;-84
2021/05/27 11:38:39;;;;;;;0.65;0.57;;;;;;;18.35;54.87;100650.38;5046951;28;20127;-84
2021/05/27 11:41:14;;;;;;;2.65;1.15;;;;;;;19.27;52.41;100645.56;5064218;28;20049;-85
2021/05/27 11:43:45;;;;;;;1.05;0.55;;;;;;;18.51;52.18;100653.25;5049319;28;20075;-85
2021/05/27 11:53:17;;;;;;;2.08;0.70;;;;;;;15.57;59.89;100655.69;5040239;28;20063;-85
2021/05/27 11:56:24;;;;;;;0.55;0.35;;;;;;;15.73;59.18;100664.00;5051972;28;20048;-84
2021/05/27 11:58:55;;;;;;;0.52;0.52;;;;;;;16.99;55.57;100663.50;5069778;28;20040;-86
2021/05/27 12:01:27;;;;;;;0.80;0.75;;;;;;;16.89;54.75;100664.72;5064083;28;21287;-86
2021/05/27 12:04:16;;;;;;;0.77;0.77;;;;;;;16.34;55.98;100658.59;5080074;28;20041;-85
2021/05/27 12:06:58;;;;;;;0.73;0.70;;;;;;;15.49;57.07;100657.69;5048726;28;20155;-84
2021/05/27 12:09:35;;;;;;;0.40;0.40;;;;;;;15.18;59.53;100669.13;5063775;28;20048;-84
2021/05/27 12:12:26;;;;;;;1.60;0.68;;;;;;;14.91;60.91;100670.72;5084420;28;20282;-86